sensor_id;sensor_type;location;lat;lon;timestamp;P1;durP1;ratioP1;P2;durP2;ratioP2
10120;SDS011;5100;45.176;5.714;2023-02-03T00:01:34;9.90;;;6.10;;
10120;SDS011;5100;45.176;5.714;2023-02-03T00:04:01;12.37;;;6.67;;
10120;SDS011;5100;45.176;5.714;2023-02-03T00:06:26;9.63;;;6.27;;
10120;SDS011;5100;45.176;5.714;2023-02-03T00:08:55;10.07;;;6.40;;
10120;SDS011;5100;45.176;5.714;2023-02-03T00:11:24;9.10;;;5.83;;
10120;SDS011;5100;45.176;5.714;2023-02-03T00:13:50;9.57;;;5.97;;
10120;SDS011;5100;45.176;5.714;2023-02-03T00:16:16;9.17;;;6.10;;
10120;SDS011;5100;45.176;5.714;2023-02-03T00:18:43;11.30;;;5.77;;
10120;SDS011;5100;45.176;5.714;2023-02-03T00:21:09;9.00;;;5.90;;
10120;SDS011;5100;45.176;5.714;2023-02-03T00:23:34;10.23;;;5.23;;
10120;SDS011;5100;45.176;5.714;2023-02-03T00:26:11;8.43;;;5.63;;
10120;SDS011;5100;45.176;5.714;2023-02-03T00:28:39;9.40;;;5.40;;
10120;SDS011;5100;45.176;5.714;2023-02-03T00:31:12;9.43;;;5.10;;
10120;SDS011;5100;45.176;5.714;2023-02-03T00:33:44;7.60;;;5.27;;
10120;SDS011;5100;45.176;5.714;2023-02-03T00:36:11;7.73;;;4.63;;
10120;SDS011;5100;45.176;5.714;2023-02-03T00:38:38;10.70;;;5.20;;
10120;SDS011;5100;45.176;5.714;2023-02-03T00:41:04;8.10;;;5.50;;
10120;SDS011;5100;45.176;5.714;2023-02-03T00:43:31;9.90;;;5.27;;
10120;SDS011;5100;45.176;5.714;2023-02-03T00:45:57;10.20;;;5.20;;
10120;SDS011;5100;45.176;5.714;2023-02-03T00:48:23;8.67;;;5.67;;
10120;SDS011;5100;45.176;5.714;2023-02-03T00:50:50;8.63;;;5.30;;
10120;SDS011;5100;45.176;5.714;2023-02-03T00:53:16;7.80;;;5.07;;
10120;SDS011;5100;45.176;5.714;2023-02-03T00:55:42;9.10;;;4.93;;
10120;SDS011;5100;45.176;5.714;2023-02-03T00:58:09;8.97;;;5.00;;
10120;SDS011;5100;45.176;5.714;2023-02-03T01:00:36;8.40;;;5.20;;
10120;SDS011;5100;45.176;5.714;2023-02-03T01:03:02;9.50;;;5.40;;
10120;SDS011;5100;45.176;5.714;2023-02-03T01:05:28;7.93;;;5.30;;
10120;SDS011;5100;45.176;5.714;2023-02-03T01:07:55;7.70;;;5.53;;
10120;SDS011;5100;45.176;5.714;2023-02-03T01:10:21;8.13;;;6.33;;
10120;SDS011;5100;45.176;5.714;2023-02-03T01:12:49;9.17;;;6.40;;
10120;SDS011;5100;45.176;5.714;2023-02-03T01:15:14;10.50;;;5.67;;
10120;SDS011;5100;45.176;5.714;2023-02-03T01:17:40;11.57;;;6.10;;
10120;SDS011;5100;45.176;5.714;2023-02-03T01:20:07;9.87;;;6.83;;
10120;SDS011;5100;45.176;5.714;2023-02-03T01:22:36;9.13;;;6.87;;
10120;SDS011;5100;45.176;5.714;2023-02-03T01:25:02;8.37;;;6.63;;
10120;SDS011;5100;45.176;5.714;2023-02-03T01:27:30;12.17;;;6.50;;
10120;SDS011;5100;45.176;5.714;2023-02-03T01:29:57;8.70;;;6.20;;
10120;SDS011;5100;45.176;5.714;2023-02-03T01:32:24;9.43;;;6.13;;
10120;SDS011;5100;45.176;5.714;2023-02-03T01:34:51;8.37;;;6.43;;
10120;SDS011;5100;45.176;5.714;2023-02-03T01:37:17;8.33;;;6.40;;
10120;SDS011;5100;45.176;5.714;2023-02-03T01:39:43;9.07;;;6.33;;
10120;SDS011;5100;45.176;5.714;2023-02-03T01:42:13;8.53;;;6.40;;
10120;SDS011;5100;45.176;5.714;2023-02-03T01:44:47;10.43;;;6.67;;
10120;SDS011;5100;45.176;5.714;2023-02-03T01:47:22;12.20;;;6.67;;
10120;SDS011;5100;45.176;5.714;2023-02-03T01:50:05;10.90;;;6.93;;
10120;SDS011;5100;45.176;5.714;2023-02-03T01:52:32;11.43;;;6.43;;
10120;SDS011;5100;45.176;5.714;2023-02-03T01:54:59;10.23;;;6.40;;
10120;SDS011;5100;45.176;5.714;2023-02-03T01:58:15;10.47;;;5.93;;
10120;SDS011;5100;45.176;5.714;2023-02-03T02:00:18;9.17;;;5.50;;
10120;SDS011;5100;45.176;5.714;2023-02-03T02:02:45;9.33;;;5.40;;
10120;SDS011;5100;45.176;5.714;2023-02-03T02:07:43;6.90;;;5.20;;
10120;SDS011;5100;45.176;5.714;2023-02-03T02:10:12;9.90;;;5.80;;
10120;SDS011;5100;45.176;5.714;2023-02-03T02:12:40;7.73;;;5.13;;
10120;SDS011;5100;45.176;5.714;2023-02-03T02:15:06;8.30;;;5.27;;
10120;SDS011;5100;45.176;5.714;2023-02-03T02:17:36;10.20;;;6.00;;
10120;SDS011;5100;45.176;5.714;2023-02-03T02:23:06;8.97;;;5.50;;
10120;SDS011;5100;45.176;5.714;2023-02-03T02:28:57;7.70;;;5.70;;
10120;SDS011;5100;45.176;5.714;2023-02-03T02:31:59;10.33;;;5.93;;
10120;SDS011;5100;45.176;5.714;2023-02-03T02:42:38;7.00;;;5.53;;
10120;SDS011;5100;45.176;5.714;2023-02-03T02:45:27;11.03;;;6.60;;
10120;SDS011;5100;45.176;5.714;2023-02-03T02:48:09;9.00;;;6.23;;
10120;SDS011;5100;45.176;5.714;2023-02-03T02:50:42;7.63;;;5.43;;
10120;SDS011;5100;45.176;5.714;2023-02-03T02:53:12;8.23;;;5.63;;
10120;SDS011;5100;45.176;5.714;2023-02-03T02:55:40;8.67;;;5.97;;
10120;SDS011;5100;45.176;5.714;2023-02-03T02:58:10;8.87;;;5.30;;
10120;SDS011;5100;45.176;5.714;2023-02-03T03:00:37;9.67;;;5.90;;
10120;SDS011;5100;45.176;5.714;2023-02-03T03:03:15;9.97;;;5.97;;
10120;SDS011;5100;45.176;5.714;2023-02-03T03:06:08;9.17;;;5.80;;
10120;SDS011;5100;45.176;5.714;2023-02-03T03:08:38;8.83;;;5.77;;
10120;SDS011;5100;45.176;5.714;2023-02-03T03:11:20;9.77;;;6.13;;
10120;SDS011;5100;45.176;5.714;2023-02-03T03:13:48;8.37;;;5.77;;
10120;SDS011;5100;45.176;5.714;2023-02-03T03:16:18;8.00;;;5.63;;
10120;SDS011;5100;45.176;5.714;2023-02-03T03:18:58;9.27;;;6.07;;
10120;SDS011;5100;45.176;5.714;2023-02-03T03:21:30;8.70;;;5.43;;
10120;SDS011;5100;45.176;5.714;2023-02-03T03:24:02;8.77;;;5.90;;
10120;SDS011;5100;45.176;5.714;2023-02-03T03:29:05;7.43;;;5.97;;
10120;SDS011;5100;45.176;5.714;2023-02-03T03:31:37;9.60;;;6.03;;
10120;SDS011;5100;45.176;5.714;2023-02-03T03:34:04;7.73;;;5.43;;
10120;SDS011;5100;45.176;5.714;2023-02-03T03:36:54;7.67;;;6.20;;
10120;SDS011;5100;45.176;5.714;2023-02-03T03:39:36;9.40;;;6.23;;
10120;SDS011;5100;45.176;5.714;2023-02-03T03:42:32;8.43;;;5.97;;
10120;SDS011;5100;45.176;5.714;2023-02-03T03:45:24;8.40;;;6.07;;
10120;SDS011;5100;45.176;5.714;2023-02-03T03:47:53;7.27;;;5.67;;
10120;SDS011;5100;45.176;5.714;2023-02-03T03:50:31;7.87;;;6.10;;
10120;SDS011;5100;45.176;5.714;2023-02-03T03:53:01;8.80;;;5.67;;
10120;SDS011;5100;45.176;5.714;2023-02-03T03:55:31;8.20;;;6.07;;
10120;SDS011;5100;45.176;5.714;2023-02-03T03:58:33;9.10;;;6.23;;
10120;SDS011;5100;45.176;5.714;2023-02-03T04:00:55;8.83;;;6.33;;
10120;SDS011;5100;45.176;5.714;2023-02-03T04:03:28;7.93;;;5.80;;
10120;SDS011;5100;45.176;5.714;2023-02-03T04:05:58;11.23;;;5.60;;
10120;SDS011;5100;45.176;5.714;2023-02-03T04:08:24;8.60;;;6.13;;
10120;SDS011;5100;45.176;5.714;2023-02-03T04:10:50;8.90;;;6.10;;
10120;SDS011;5100;45.176;5.714;2023-02-03T04:13:16;8.27;;;5.77;;
10120;SDS011;5100;45.176;5.714;2023-02-03T04:15:44;8.67;;;5.80;;
10120;SDS011;5100;45.176;5.714;2023-02-03T04:18:12;7.87;;;6.10;;
10120;SDS011;5100;45.176;5.714;2023-02-03T04:20:38;8.63;;;6.00;;
10120;SDS011;5100;45.176;5.714;2023-02-03T04:23:04;9.63;;;6.37;;
10120;SDS011;5100;45.176;5.714;2023-02-03T04:25:31;7.87;;;5.43;;
10120;SDS011;5100;45.176;5.714;2023-02-03T04:27:57;7.53;;;5.30;;
10120;SDS011;5100;45.176;5.714;2023-02-03T04:30:23;7.60;;;5.47;;
10120;SDS011;5100;45.176;5.714;2023-02-03T04:32:49;8.20;;;5.33;;
10120;SDS011;5100;45.176;5.714;2023-02-03T04:35:15;7.33;;;5.80;;
10120;SDS011;5100;45.176;5.714;2023-02-03T04:37:41;9.93;;;5.90;;
10120;SDS011;5100;45.176;5.714;2023-02-03T04:40:07;8.37;;;6.40;;
10120;SDS011;5100;45.176;5.714;2023-02-03T04:42:37;8.20;;;5.93;;
10120;SDS011;5100;45.176;5.714;2023-02-03T04:45:04;8.57;;;6.03;;
10120;SDS011;5100;45.176;5.714;2023-02-03T04:47:32;6.77;;;5.93;;
10120;SDS011;5100;45.176;5.714;2023-02-03T04:49:58;10.03;;;5.97;;
10120;SDS011;5100;45.176;5.714;2023-02-03T04:52:24;8.83;;;5.80;;
10120;SDS011;5100;45.176;5.714;2023-02-03T04:54:51;9.27;;;6.07;;
10120;SDS011;5100;45.176;5.714;2023-02-03T04:57:17;8.60;;;6.07;;
10120;SDS011;5100;45.176;5.714;2023-02-03T04:59:43;9.97;;;6.07;;
10120;SDS011;5100;45.176;5.714;2023-02-03T05:02:09;9.83;;;5.90;;
10120;SDS011;5100;45.176;5.714;2023-02-03T05:04:35;8.33;;;5.63;;
10120;SDS011;5100;45.176;5.714;2023-02-03T05:07:01;7.60;;;5.13;;
10120;SDS011;5100;45.176;5.714;2023-02-03T05:09:27;9.00;;;6.20;;
10120;SDS011;5100;45.176;5.714;2023-02-03T05:11:53;10.63;;;5.97;;
10120;SDS011;5100;45.176;5.714;2023-02-03T05:14:19;8.83;;;6.17;;
10120;SDS011;5100;45.176;5.714;2023-02-03T05:16:46;9.57;;;6.23;;
10120;SDS011;5100;45.176;5.714;2023-02-03T05:19:12;9.03;;;6.30;;
10120;SDS011;5100;45.176;5.714;2023-02-03T05:21:38;9.40;;;6.20;;
10120;SDS011;5100;45.176;5.714;2023-02-03T05:24:05;11.90;;;6.57;;
10120;SDS011;5100;45.176;5.714;2023-02-03T05:26:32;8.50;;;6.00;;
10120;SDS011;5100;45.176;5.714;2023-02-03T05:28:59;8.37;;;5.67;;
10120;SDS011;5100;45.176;5.714;2023-02-03T05:31:26;7.67;;;5.53;;
10120;SDS011;5100;45.176;5.714;2023-02-03T05:33:51;9.47;;;6.03;;
10120;SDS011;5100;45.176;5.714;2023-02-03T05:36:17;9.13;;;5.93;;
10120;SDS011;5100;45.176;5.714;2023-02-03T05:38:44;11.77;;;6.00;;
10120;SDS011;5100;45.176;5.714;2023-02-03T05:41:10;7.93;;;6.20;;
10120;SDS011;5100;45.176;5.714;2023-02-03T05:43:56;10.63;;;6.47;;
10120;SDS011;5100;45.176;5.714;2023-02-03T05:46:22;8.00;;;5.67;;
10120;SDS011;5100;45.176;5.714;2023-02-03T05:48:48;7.03;;;6.10;;
10120;SDS011;5100;45.176;5.714;2023-02-03T05:51:15;9.50;;;5.90;;
10120;SDS011;5100;45.176;5.714;2023-02-03T05:53:41;6.90;;;5.83;;
10120;SDS011;5100;45.176;5.714;2023-02-03T05:56:07;7.83;;;6.40;;
10120;SDS011;5100;45.176;5.714;2023-02-03T05:58:33;10.00;;;7.07;;
10120;SDS011;5100;45.176;5.714;2023-02-03T06:00:59;9.47;;;7.17;;
10120;SDS011;5100;45.176;5.714;2023-02-03T06:03:25;8.83;;;6.60;;
10120;SDS011;5100;45.176;5.714;2023-02-03T06:05:51;7.47;;;6.00;;
10120;SDS011;5100;45.176;5.714;2023-02-03T06:08:17;8.83;;;6.40;;
10120;SDS011;5100;45.176;5.714;2023-02-03T06:10:43;8.90;;;6.27;;
10120;SDS011;5100;45.176;5.714;2023-02-03T06:13:10;11.00;;;6.90;;
10120;SDS011;5100;45.176;5.714;2023-02-03T06:15:37;9.27;;;7.00;;
10120;SDS011;5100;45.176;5.714;2023-02-03T06:18:04;9.53;;;6.53;;
10120;SDS011;5100;45.176;5.714;2023-02-03T06:20:31;9.13;;;5.77;;
10120;SDS011;5100;45.176;5.714;2023-02-03T06:22:57;9.23;;;5.80;;
10120;SDS011;5100;45.176;5.714;2023-02-03T06:25:24;9.33;;;5.83;;
10120;SDS011;5100;45.176;5.714;2023-02-03T06:27:50;7.60;;;5.23;;
10120;SDS011;5100;45.176;5.714;2023-02-03T06:30:16;8.23;;;5.60;;
10120;SDS011;5100;45.176;5.714;2023-02-03T06:32:42;8.93;;;5.40;;
10120;SDS011;5100;45.176;5.714;2023-02-03T06:35:08;8.33;;;5.83;;
10120;SDS011;5100;45.176;5.714;2023-02-03T06:37:34;9.37;;;5.77;;
10120;SDS011;5100;45.176;5.714;2023-02-03T06:40:02;9.83;;;6.70;;
10120;SDS011;5100;45.176;5.714;2023-02-03T06:42:28;11.57;;;6.20;;
10120;SDS011;5100;45.176;5.714;2023-02-03T06:44:55;9.93;;;5.70;;
10120;SDS011;5100;45.176;5.714;2023-02-03T06:47:21;11.70;;;6.60;;
10120;SDS011;5100;45.176;5.714;2023-02-03T06:49:47;10.80;;;6.47;;
10120;SDS011;5100;45.176;5.714;2023-02-03T06:52:13;12.23;;;6.47;;
10120;SDS011;5100;45.176;5.714;2023-02-03T06:54:40;11.27;;;6.03;;
10120;SDS011;5100;45.176;5.714;2023-02-03T06:57:06;9.80;;;7.03;;
10120;SDS011;5100;45.176;5.714;2023-02-03T06:59:32;10.00;;;6.73;;
10120;SDS011;5100;45.176;5.714;2023-02-03T07:01:58;10.17;;;6.70;;
10120;SDS011;5100;45.176;5.714;2023-02-03T07:04:24;10.30;;;7.00;;
10120;SDS011;5100;45.176;5.714;2023-02-03T07:06:57;9.40;;;7.20;;
10120;SDS011;5100;45.176;5.714;2023-02-03T07:09:23;11.57;;;7.27;;
10120;SDS011;5100;45.176;5.714;2023-02-03T07:11:49;9.70;;;7.03;;
10120;SDS011;5100;45.176;5.714;2023-02-03T07:14:15;9.20;;;6.87;;
10120;SDS011;5100;45.176;5.714;2023-02-03T07:16:41;11.40;;;6.73;;
10120;SDS011;5100;45.176;5.714;2023-02-03T07:19:07;12.77;;;7.97;;
10120;SDS011;5100;45.176;5.714;2023-02-03T07:21:33;11.03;;;7.73;;
10120;SDS011;5100;45.176;5.714;2023-02-03T07:23:59;11.47;;;7.93;;
10120;SDS011;5100;45.176;5.714;2023-02-03T07:26:27;11.13;;;7.60;;
10120;SDS011;5100;45.176;5.714;2023-02-03T07:28:53;9.87;;;7.60;;
10120;SDS011;5100;45.176;5.714;2023-02-03T07:31:19;9.07;;;7.57;;
10120;SDS011;5100;45.176;5.714;2023-02-03T07:33:46;11.77;;;8.17;;
10120;SDS011;5100;45.176;5.714;2023-02-03T07:36:12;11.83;;;7.63;;
10120;SDS011;5100;45.176;5.714;2023-02-03T07:38:38;11.33;;;7.90;;
10120;SDS011;5100;45.176;5.714;2023-02-03T07:41:04;9.87;;;7.30;;
10120;SDS011;5100;45.176;5.714;2023-02-03T07:43:31;9.53;;;6.73;;
10120;SDS011;5100;45.176;5.714;2023-02-03T07:45:57;14.37;;;9.40;;
10120;SDS011;5100;45.176;5.714;2023-02-03T07:48:23;12.43;;;8.13;;
10120;SDS011;5100;45.176;5.714;2023-02-03T07:50:49;13.33;;;7.77;;
10120;SDS011;5100;45.176;5.714;2023-02-03T07:53:17;12.30;;;7.67;;
10120;SDS011;5100;45.176;5.714;2023-02-03T07:55:43;12.43;;;8.13;;
10120;SDS011;5100;45.176;5.714;2023-02-03T07:58:09;10.87;;;7.80;;
10120;SDS011;5100;45.176;5.714;2023-02-03T08:00:36;10.63;;;7.37;;
10120;SDS011;5100;45.176;5.714;2023-02-03T08:03:02;15.57;;;7.57;;
10120;SDS011;5100;45.176;5.714;2023-02-03T08:05:28;15.00;;;7.33;;
10120;SDS011;5100;45.176;5.714;2023-02-03T08:07:55;12.70;;;8.00;;
10120;SDS011;5100;45.176;5.714;2023-02-03T08:10:22;16.90;;;8.57;;
10120;SDS011;5100;45.176;5.714;2023-02-03T08:12:48;12.47;;;7.60;;
10120;SDS011;5100;45.176;5.714;2023-02-03T08:15:17;10.17;;;7.90;;
10120;SDS011;5100;45.176;5.714;2023-02-03T08:17:44;11.40;;;7.37;;
10120;SDS011;5100;45.176;5.714;2023-02-03T08:20:10;14.83;;;7.60;;
10120;SDS011;5100;45.176;5.714;2023-02-03T08:22:37;13.13;;;7.53;;
10120;SDS011;5100;45.176;5.714;2023-02-03T08:25:03;10.40;;;7.40;;
10120;SDS011;5100;45.176;5.714;2023-02-03T08:27:30;10.43;;;7.95;;
10120;SDS011;5100;45.176;5.714;2023-02-03T08:29:57;11.10;;;7.53;;
10120;SDS011;5100;45.176;5.714;2023-02-03T08:32:24;13.40;;;7.73;;
10120;SDS011;5100;45.176;5.714;2023-02-03T08:34:50;12.27;;;7.37;;
10120;SDS011;5100;45.176;5.714;2023-02-03T08:37:18;13.63;;;7.70;;
10120;SDS011;5100;45.176;5.714;2023-02-03T08:39:47;15.73;;;7.93;;
10120;SDS011;5100;45.176;5.714;2023-02-03T08:42:13;13.10;;;8.90;;
10120;SDS011;5100;45.176;5.714;2023-02-03T08:44:39;18.70;;;9.30;;
10120;SDS011;5100;45.176;5.714;2023-02-03T08:47:06;13.20;;;9.13;;
10120;SDS011;5100;45.176;5.714;2023-02-03T08:49:32;15.93;;;8.90;;
10120;SDS011;5100;45.176;5.714;2023-02-03T08:52:00;13.60;;;9.57;;
10120;SDS011;5100;45.176;5.714;2023-02-03T08:54:26;16.03;;;10.07;;
10120;SDS011;5100;45.176;5.714;2023-02-03T08:56:52;19.70;;;9.63;;
10120;SDS011;5100;45.176;5.714;2023-02-03T08:59:18;16.80;;;9.77;;
10120;SDS011;5100;45.176;5.714;2023-02-03T09:01:45;15.10;;;9.27;;
10120;SDS011;5100;45.176;5.714;2023-02-03T09:04:13;12.40;;;8.40;;
10120;SDS011;5100;45.176;5.714;2023-02-03T09:06:44;12.73;;;9.20;;
10120;SDS011;5100;45.176;5.714;2023-02-03T09:09:12;17.83;;;9.20;;
10120;SDS011;5100;45.176;5.714;2023-02-03T09:11:39;14.93;;;9.03;;
10120;SDS011;5100;45.176;5.714;2023-02-03T09:14:06;12.97;;;9.50;;
10120;SDS011;5100;45.176;5.714;2023-02-03T09:16:33;14.27;;;9.43;;
10120;SDS011;5100;45.176;5.714;2023-02-03T09:18:59;11.60;;;8.63;;
10120;SDS011;5100;45.176;5.714;2023-02-03T09:21:25;11.73;;;8.73;;
10120;SDS011;5100;45.176;5.714;2023-02-03T09:23:52;15.93;;;9.67;;
10120;SDS011;5100;45.176;5.714;2023-02-03T09:26:18;16.10;;;10.13;;
10120;SDS011;5100;45.176;5.714;2023-02-03T09:28:44;12.47;;;9.80;;
10120;SDS011;5100;45.176;5.714;2023-02-03T09:31:14;13.17;;;9.40;;
10120;SDS011;5100;45.176;5.714;2023-02-03T09:33:44;15.80;;;9.10;;
10120;SDS011;5100;45.176;5.714;2023-02-03T09:36:11;11.87;;;9.33;;
10120;SDS011;5100;45.176;5.714;2023-02-03T09:38:38;13.50;;;9.13;;
10120;SDS011;5100;45.176;5.714;2023-02-03T09:41:13;12.83;;;9.47;;
10120;SDS011;5100;45.176;5.714;2023-02-03T09:43:49;13.07;;;9.67;;
10120;SDS011;5100;45.176;5.714;2023-02-03T09:46:26;12.50;;;8.80;;
10120;SDS011;5100;45.176;5.714;2023-02-03T09:48:58;13.70;;;9.60;;
10120;SDS011;5100;45.176;5.714;2023-02-03T09:51:39;9.40;;;7.73;;
10120;SDS011;5100;45.176;5.714;2023-02-03T09:57:05;10.53;;;8.13;;
10120;SDS011;5100;45.176;5.714;2023-02-03T09:59:41;15.27;;;8.50;;
10120;SDS011;5100;45.176;5.714;2023-02-03T10:07:40;12.03;;;8.93;;
10120;SDS011;5100;45.176;5.714;2023-02-03T10:10:52;11.03;;;8.43;;
10120;SDS011;5100;45.176;5.714;2023-02-03T10:13:48;12.83;;;8.90;;
10120;SDS011;5100;45.176;5.714;2023-02-03T10:16:44;10.77;;;8.23;;
10120;SDS011;5100;45.176;5.714;2023-02-03T10:19:17;10.10;;;7.57;;
10120;SDS011;5100;45.176;5.714;2023-02-03T10:21:57;9.87;;;6.93;;
10120;SDS011;5100;45.176;5.714;2023-02-03T10:27:04;9.37;;;7.17;;
10120;SDS011;5100;45.176;5.714;2023-02-03T10:29:41;9.97;;;7.07;;
10120;SDS011;5100;45.176;5.714;2023-02-03T10:32:08;9.67;;;7.80;;
10120;SDS011;5100;45.176;5.714;2023-02-03T10:34:36;9.47;;;6.83;;
10120;SDS011;5100;45.176;5.714;2023-02-03T10:37:24;9.70;;;7.23;;
10120;SDS011;5100;45.176;5.714;2023-02-03T10:39:57;10.27;;;6.93;;
10120;SDS011;5100;45.176;5.714;2023-02-03T10:42:26;8.83;;;6.93;;
10120;SDS011;5100;45.176;5.714;2023-02-03T10:45:14;11.90;;;7.23;;
10120;SDS011;5100;45.176;5.714;2023-02-03T10:47:47;8.13;;;6.37;;
10120;SDS011;5100;45.176;5.714;2023-02-03T10:50:22;8.23;;;6.73;;
10120;SDS011;5100;45.176;5.714;2023-02-03T10:55:49;9.73;;;7.00;;
10120;SDS011;5100;45.176;5.714;2023-02-03T10:58:28;9.53;;;6.83;;
10120;SDS011;5100;45.176;5.714;2023-02-03T11:00:56;8.47;;;5.80;;
10120;SDS011;5100;45.176;5.714;2023-02-03T11:03:29;10.03;;;6.50;;
10120;SDS011;5100;45.176;5.714;2023-02-03T11:06:05;7.33;;;6.30;;
10120;SDS011;5100;45.176;5.714;2023-02-03T11:08:35;7.50;;;5.90;;
10120;SDS011;5100;45.176;5.714;2023-02-03T11:11:04;8.00;;;6.30;;
10120;SDS011;5100;45.176;5.714;2023-02-03T11:13:32;8.83;;;6.40;;
10120;SDS011;5100;45.176;5.714;2023-02-03T11:16:05;9.37;;;6.93;;
10120;SDS011;5100;45.176;5.714;2023-02-03T11:21:17;8.20;;;6.10;;
10120;SDS011;5100;45.176;5.714;2023-02-03T11:23:48;8.83;;;5.73;;
10120;SDS011;5100;45.176;5.714;2023-02-03T11:26:16;8.23;;;5.57;;
10120;SDS011;5100;45.176;5.714;2023-02-03T11:28:45;5.93;;;5.33;;
10120;SDS011;5100;45.176;5.714;2023-02-03T11:31:15;8.67;;;6.30;;
10120;SDS011;5100;45.176;5.714;2023-02-03T11:33:47;12.17;;;6.30;;
10120;SDS011;5100;45.176;5.714;2023-02-03T11:36:25;8.97;;;6.47;;
10120;SDS011;5100;45.176;5.714;2023-02-03T11:38:56;7.13;;;5.70;;
10120;SDS011;5100;45.176;5.714;2023-02-03T11:41:38;8.23;;;5.60;;
10120;SDS011;5100;45.176;5.714;2023-02-03T11:44:14;8.07;;;6.10;;
10120;SDS011;5100;45.176;5.714;2023-02-03T11:46:43;6.83;;;5.87;;
10120;SDS011;5100;45.176;5.714;2023-02-03T11:52:05;9.37;;;6.00;;
10120;SDS011;5100;45.176;5.714;2023-02-03T11:54:40;8.10;;;5.10;;
10120;SDS011;5100;45.176;5.714;2023-02-03T11:57:40;4.63;;;4.23;;
10120;SDS011;5100;45.176;5.714;2023-02-03T12:00:25;5.03;;;4.53;;
10120;SDS011;5100;45.176;5.714;2023-02-03T12:08:26;8.03;;;5.17;;
10120;SDS011;5100;45.176;5.714;2023-02-03T12:11:09;6.20;;;5.13;;
10120;SDS011;5100;45.176;5.714;2023-02-03T12:16:39;5.57;;;4.77;;
10120;SDS011;5100;45.176;5.714;2023-02-03T12:22:21;7.23;;;4.90;;
10120;SDS011;5100;45.176;5.714;2023-02-03T12:25:07;5.80;;;4.57;;
10120;SDS011;5100;45.176;5.714;2023-02-03T12:27:55;6.60;;;5.23;;
10120;SDS011;5100;45.176;5.714;2023-02-03T12:30:37;7.20;;;5.07;;
10120;SDS011;5100;45.176;5.714;2023-02-03T12:33:10;8.43;;;5.37;;
10120;SDS011;5100;45.176;5.714;2023-02-03T12:35:53;6.07;;;4.97;;
10120;SDS011;5100;45.176;5.714;2023-02-03T12:38:28;7.87;;;5.53;;
10120;SDS011;5100;45.176;5.714;2023-02-03T12:41:16;8.77;;;5.97;;
10120;SDS011;5100;45.176;5.714;2023-02-03T12:43:50;7.10;;;5.50;;
10120;SDS011;5100;45.176;5.714;2023-02-03T12:57:17;8.73;;;5.63;;
10120;SDS011;5100;45.176;5.714;2023-02-03T13:00:15;6.93;;;5.23;;
10120;SDS011;5100;45.176;5.714;2023-02-03T13:02:53;6.00;;;4.93;;
10120;SDS011;5100;45.176;5.714;2023-02-03T13:05:37;6.37;;;5.00;;
10120;SDS011;5100;45.176;5.714;2023-02-03T13:08:11;10.00;;;5.27;;
10120;SDS011;5100;45.176;5.714;2023-02-03T13:10:48;8.00;;;5.30;;
10120;SDS011;5100;45.176;5.714;2023-02-03T13:13:22;7.63;;;5.13;;
10120;SDS011;5100;45.176;5.714;2023-02-03T13:15:57;9.53;;;5.07;;
10120;SDS011;5100;45.176;5.714;2023-02-03T13:18:39;6.90;;;4.87;;
10120;SDS011;5100;45.176;5.714;2023-02-03T13:21:11;9.60;;;5.87;;
10120;SDS011;5100;45.176;5.714;2023-02-03T13:23:41;5.50;;;5.00;;
10120;SDS011;5100;45.176;5.714;2023-02-03T13:31:47;7.90;;;5.60;;
10120;SDS011;5100;45.176;5.714;2023-02-03T13:34:40;6.63;;;5.53;;
10120;SDS011;5100;45.176;5.714;2023-02-03T13:43:02;10.63;;;6.13;;
10120;SDS011;5100;45.176;5.714;2023-02-03T13:45:38;9.30;;;5.47;;
10120;SDS011;5100;45.176;5.714;2023-02-03T13:48:15;7.60;;;5.13;;
10120;SDS011;5100;45.176;5.714;2023-02-03T13:50:46;6.40;;;5.50;;
10120;SDS011;5100;45.176;5.714;2023-02-03T13:53:16;7.77;;;5.83;;
10120;SDS011;5100;45.176;5.714;2023-02-03T13:55:43;6.40;;;5.37;;
10120;SDS011;5100;45.176;5.714;2023-02-03T13:58:19;6.63;;;5.50;;
10120;SDS011;5100;45.176;5.714;2023-02-03T14:16:34;7.67;;;5.40;;
10120;SDS011;5100;45.176;5.714;2023-02-03T14:19:03;7.27;;;5.07;;
10120;SDS011;5100;45.176;5.714;2023-02-03T14:21:53;7.03;;;4.80;;
10120;SDS011;5100;45.176;5.714;2023-02-03T14:24:57;8.80;;;5.77;;
10120;SDS011;5100;45.176;5.714;2023-02-03T14:27:34;6.97;;;5.20;;
10120;SDS011;5100;45.176;5.714;2023-02-03T14:30:18;7.20;;;5.60;;
10120;SDS011;5100;45.176;5.714;2023-02-03T14:32:48;8.40;;;5.43;;
10120;SDS011;5100;45.176;5.714;2023-02-03T14:35:21;8.87;;;5.70;;
10120;SDS011;5100;45.176;5.714;2023-02-03T14:37:59;9.50;;;5.30;;
10120;SDS011;5100;45.176;5.714;2023-02-03T14:40:32;8.67;;;5.37;;
10120;SDS011;5100;45.176;5.714;2023-02-03T14:46:31;5.73;;;5.07;;
10120;SDS011;5100;45.176;5.714;2023-02-03T14:52:03;7.20;;;5.03;;
10120;SDS011;5100;45.176;5.714;2023-02-03T15:05:41;6.87;;;5.30;;
10120;SDS011;5100;45.176;5.714;2023-02-03T15:10:57;6.20;;;4.20;;
10120;SDS011;5100;45.176;5.714;2023-02-03T15:13:29;3.37;;;2.80;;
10120;SDS011;5100;45.176;5.714;2023-02-03T15:16:02;4.20;;;2.80;;
10120;SDS011;5100;45.176;5.714;2023-02-03T15:18:30;4.63;;;2.43;;
10120;SDS011;5100;45.176;5.714;2023-02-03T15:21:00;4.10;;;2.60;;
10120;SDS011;5100;45.176;5.714;2023-02-03T15:23:27;6.03;;;2.50;;
10120;SDS011;5100;45.176;5.714;2023-02-03T15:25:56;3.57;;;2.60;;
10120;SDS011;5100;45.176;5.714;2023-02-03T15:28:28;5.40;;;2.50;;
10120;SDS011;5100;45.176;5.714;2023-02-03T15:31:06;3.53;;;2.40;;
10120;SDS011;5100;45.176;5.714;2023-02-03T15:34:10;4.50;;;2.40;;
10120;SDS011;5100;45.176;5.714;2023-02-03T15:37:01;4.60;;;2.50;;
10120;SDS011;5100;45.176;5.714;2023-02-03T15:39:38;4.40;;;2.53;;
10120;SDS011;5100;45.176;5.714;2023-02-03T15:42:11;3.90;;;2.60;;
10120;SDS011;5100;45.176;5.714;2023-02-03T15:45:06;4.47;;;3.40;;
10120;SDS011;5100;45.176;5.714;2023-02-03T15:47:56;8.13;;;4.10;;
10120;SDS011;5100;45.176;5.714;2023-02-03T15:50:41;6.17;;;2.77;;
10120;SDS011;5100;45.176;5.714;2023-02-03T15:53:30;4.33;;;2.47;;
10120;SDS011;5100;45.176;5.714;2023-02-03T15:56:00;3.37;;;2.70;;
10120;SDS011;5100;45.176;5.714;2023-02-03T15:58:38;5.80;;;2.47;;
10120;SDS011;5100;45.176;5.714;2023-02-03T16:01:10;4.83;;;2.77;;
10120;SDS011;5100;45.176;5.714;2023-02-03T16:03:42;5.37;;;2.80;;
10120;SDS011;5100;45.176;5.714;2023-02-03T16:06:17;3.30;;;2.07;;
10120;SDS011;5100;45.176;5.714;2023-02-03T16:08:48;3.97;;;2.30;;
10120;SDS011;5100;45.176;5.714;2023-02-03T16:11:26;5.93;;;2.47;;
10120;SDS011;5100;45.176;5.714;2023-02-03T16:14:02;2.90;;;2.43;;
10120;SDS011;5100;45.176;5.714;2023-02-03T16:16:39;2.57;;;2.10;;
10120;SDS011;5100;45.176;5.714;2023-02-03T16:19:19;4.10;;;2.33;;
10120;SDS011;5100;45.176;5.714;2023-02-03T16:27:34;4.67;;;2.23;;
10120;SDS011;5100;45.176;5.714;2023-02-03T16:33:03;6.20;;;2.77;;
10120;SDS011;5100;45.176;5.714;2023-02-03T16:36:08;3.60;;;2.37;;
10120;SDS011;5100;45.176;5.714;2023-02-03T16:38:55;6.50;;;2.43;;
10120;SDS011;5100;45.176;5.714;2023-02-03T16:41:44;5.40;;;2.80;;
10120;SDS011;5100;45.176;5.714;2023-02-03T16:44:29;3.60;;;2.70;;
10120;SDS011;5100;45.176;5.714;2023-02-03T16:47:22;3.60;;;2.47;;
10120;SDS011;5100;45.176;5.714;2023-02-03T16:50:10;4.70;;;3.00;;
10120;SDS011;5100;45.176;5.714;2023-02-03T16:53:00;4.30;;;2.50;;
10120;SDS011;5100;45.176;5.714;2023-02-03T16:55:26;4.47;;;2.77;;
10120;SDS011;5100;45.176;5.714;2023-02-03T16:57:52;3.17;;;2.37;;
10120;SDS011;5100;45.176;5.714;2023-02-03T17:00:19;4.27;;;2.67;;
10120;SDS011;5100;45.176;5.714;2023-02-03T17:02:47;3.23;;;2.20;;
10120;SDS011;5100;45.176;5.714;2023-02-03T17:05:14;7.57;;;2.60;;
10120;SDS011;5100;45.176;5.714;2023-02-03T17:07:41;3.93;;;2.47;;
10120;SDS011;5100;45.176;5.714;2023-02-03T17:10:08;4.80;;;2.90;;
10120;SDS011;5100;45.176;5.714;2023-02-03T17:12:34;5.20;;;3.10;;
10120;SDS011;5100;45.176;5.714;2023-02-03T17:15:05;3.70;;;2.20;;
10120;SDS011;5100;45.176;5.714;2023-02-03T17:17:32;3.97;;;2.60;;
10120;SDS011;5100;45.176;5.714;2023-02-03T17:19:58;5.37;;;3.00;;
10120;SDS011;5100;45.176;5.714;2023-02-03T17:22:25;3.57;;;2.83;;